Time;durP1;ratioP1;P1;durP2;ratioP2;P2;SDS_P1;SDS_P2;PMS_P1;PMS_P2;Temp;Humidity;BMP_temperature;BMP_pressure;BME280_temperature;BME280_humidity;BME280_pressure;Samples;Min_cycle;Max_cycle;Signal;HPM_P1;HPM_P2
2021/01/19 00:00:42;;;;;;;40.95;21.30;;;3.10;99.90;;;;;;5162327;27;20237;-85
2021/01/19 00:03:08;;;;;;;44.47;21.85;;;3.10;99.90;;;;;;5161960;27;20272;-86
2021/01/19 00:05:34;;;;;;;37.13;22.20;;;3.10;99.90;;;;;;5161902;27;20642;-86
2021/01/19 00:08:01;;;;;;;34.88;20.05;;;3.00;99.90;;;;;;5160662;27;20306;-86
2021/01/19 00:10:27;;;;;;;31.02;20.33;;;3.10;99.90;;;;;;5163523;27;20727;-87
2021/01/19 00:12:53;;;;;;;33.55;21.52;;;3.00;99.90;;;;;;5161141;27;20200;-85
2021/01/19 00:15:20;;;;;;;35.17;22.30;;;3.10;99.90;;;;;;5161670;27;20219;-85
2021/01/19 00:17:47;;;;;;;42.83;20.40;;;3.10;99.90;;;;;;5160826;27;20564;-85
2021/01/19 00:20:15;;;;;;;32.72;22.20;;;3.10;99.90;;;;;;5160896;27;20203;-85
2021/01/19 00:22:41;;;;;;;33.70;20.30;;;3.10;99.90;;;;;;5161264;27;20679;-85
2021/01/19 00:25:10;;;;;;;38.22;22.00;;;3.10;99.90;;;;;;5161261;27;20192;-85
2021/01/19 00:27:36;;;;;;;35.28;22.30;;;3.10;99.90;;;;;;5161368;27;20243;-86
2021/01/19 00:30:03;;;;;;;36.03;22.58;;;3.10;99.90;;;;;;5162010;27;20714;-85
2021/01/19 00:32:30;;;;;;;37.50;20.30;;;3.10;99.90;;;;;;5160868;27;20196;-85
2021/01/19 00:34:57;;;;;;;38.03;22.23;;;3.10;99.90;;;;;;5161587;27;20219;-87
2021/01/19 00:37:23;;;;;;;34.45;20.80;;;3.10;99.90;;;;;;5161166;27;20306;-86
2021/01/19 00:39:49;;;;;;;41.40;21.23;;;3.20;99.90;;;;;;5159249;27;20331;-86
2021/01/19 00:42:16;;;;;;;31.35;20.52;;;3.10;99.90;;;;;;5159829;27;20243;-85
2021/01/19 00:44:42;;;;;;;39.42;19.33;;;3.10;99.90;;;;;;5159614;27;20278;-85
2021/01/19 00:47:08;;;;;;;31.35;21.80;;;3.20;99.90;;;;;;5167983;27;20283;-84
2021/01/19 00:49:35;;;;;;;33.30;20.92;;;3.10;99.90;;;;;;5174454;27;20199;-84
2021/01/19 00:52:02;;;;;;;40.67;25.10;;;3.10;99.90;;;;;;5172903;27;20227;-84
2021/01/19 00:54:28;;;;;;;35.05;21.80;;;3.10;99.90;;;;;;5172674;27;20219;-85
2021/01/19 00:56:54;;;;;;;32.72;19.23;;;3.20;99.90;;;;;;5167339;27;20263;-86
2021/01/19 00:59:21;;;;;;;31.95;21.27;;;3.20;99.90;;;;;;5160382;27;20275;-85
2021/01/19 01:01:48;;;;;;;30.80;20.80;;;3.10;99.90;;;;;;5159346;27;20310;-85
2021/01/19 01:04:15;;;;;;;38.40;20.08;;;3.10;99.90;;;;;;5159768;27;20192;-86
2021/01/19 01:06:44;;;;;;;27.02;20.02;;;3.10;99.90;;;;;;5160904;27;20294;-85
2021/01/19 01:09:11;;;;;;;34.45;21.20;;;3.10;99.90;;;;;;5159050;27;20215;-85
2021/01/19 01:11:39;;;;;;;29.98;20.65;;;3.10;99.90;;;;;;5158817;27;20286;-86
2021/01/19 01:14:07;;;;;;;31.23;19.75;;;3.10;99.90;;;;;;5159064;27;20306;-85
2021/01/19 01:16:34;;;;;;;34.45;21.15;;;3.10;99.90;;;;;;5159140;27;20195;-85
2021/01/19 01:19:01;;;;;;;31.58;21.45;;;3.10;99.90;;;;;;5159405;27;20222;-86
2021/01/19 01:21:27;;;;;;;35.72;20.75;;;3.10;99.90;;;;;;5159123;27;20209;-86
2021/01/19 01:23:53;;;;;;;29.80;19.70;;;3.10;99.90;;;;;;5159148;27;20617;-86
2021/01/19 01:26:23;;;;;;;29.55;19.77;;;3.20;99.90;;;;;;5160814;27;20271;-86
2021/01/19 01:28:49;;;;;;;37.60;21.73;;;3.10;99.90;;;;;;5162984;27;20251;-86
2021/01/19 01:31:19;;;;;;;36.92;21.02;;;3.10;99.90;;;;;;5163563;27;20630;-86
2021/01/19 01:33:46;;;;;;;35.78;20.88;;;3.10;99.90;;;;;;5163311;27;20220;-86
2021/01/19 01:36:13;;;;;;;33.25;21.13;;;3.10;99.90;;;;;;5163673;27;20270;-86
2021/01/19 01:38:39;;;;;;;31.73;20.63;;;3.10;99.90;;;;;;5163917;27;20580;-86
2021/01/19 01:41:13;;;;;;;41.45;22.55;;;3.10;99.90;;;;;;5163267;27;20351;-86
2021/01/19 01:43:40;;;;;;;36.05;20.63;;;3.10;99.90;;;;;;5163660;27;20251;-85
2021/01/19 01:46:08;;;;;;;36.55;19.10;;;3.10;99.90;;;;;;5163908;27;20379;-86
2021/01/19 01:48:35;;;;;;;33.15;20.05;;;3.10;99.90;;;;;;5163464;27;20226;-86
2021/01/19 01:51:01;;;;;;;32.20;19.92;;;3.10;99.90;;;;;;5164706;27;20200;-86
2021/01/19 01:53:28;;;;;;;31.77;20.13;;;3.10;99.90;;;;;;5162258;27;20255;-86
2021/01/19 01:55:54;;;;;;;41.20;21.05;;;3.00;99.90;;;;;;5161648;27;20204;-86
2021/01/19 01:58:21;;;;;;;32.45;19.80;;;3.00;99.90;;;;;;5161770;27;20228;-86
2021/01/19 02:00:50;;;;;;;33.83;19.55;;;3.10;99.90;;;;;;5162224;27;20573;-86
2021/01/19 02:03:18;;;;;;;30.92;20.98;;;3.10;99.90;;;;;;5170936;27;20337;-86
2021/01/19 02:05:44;;;;;;;35.47;19.77;;;3.10;99.90;;;;;;5164931;27;20200;-85
2021/01/19 02:08:18;;;;;;;28.20;19.25;;;3.10;99.90;;;;;;5164249;27;20319;-86
2021/01/19 02:11:13;;;;;;;37.88;20.58;;;3.10;99.90;;;;;;5164560;27;20190;-85
2021/01/19 02:13:50;;;;;;;33.78;21.17;;;3.10;99.90;;;;;;5163025;27;20270;-86
2021/01/19 02:16:27;;;;;;;33.63;18.83;;;3.10;99.90;;;;;;5162851;27;20686;-86
2021/01/19 02:19:09;;;;;;;29.17;18.10;;;3.10;99.90;;;;;;5162059;27;20283;-86
2021/01/19 02:21:55;;;;;;;25.17;19.55;;;3.10;99.90;;;;;;5161719;27;20248;-86
2021/01/19 02:24:33;;;;;;;29.67;18.45;;;3.10;99.90;;;;;;5157313;27;20341;-86
2021/01/19 02:27:29;;;;;;;27.40;18.63;;;3.10;99.90;;;;;;5161726;27;20598;-86
2021/01/19 02:30:19;;;;;;;31.40;18.30;;;3.10;99.90;;;;;;5153239;27;20248;-86
2021/01/19 02:32:59;;;;;;;36.47;19.55;;;3.20;99.90;;;;;;5161913;27;20192;-86
2021/01/19 02:35:30;;;;;;;31.25;19.08;;;3.20;99.90;;;;;;5162174;27;20207;-86
2021/01/19 02:38:04;;;;;;;37.03;19.20;;;3.20;99.90;;;;;;5159964;27;20220;-86
2021/01/19 02:40:31;;;;;;;30.50;19.20;;;3.10;99.90;;;;;;5161510;27;20188;-86
2021/01/19 02:43:08;;;;;;;31.15;18.90;;;3.00;99.90;;;;;;5161847;27;20267;-85
2021/01/19 02:45:34;;;;;;;27.73;17.58;;;3.00;99.90;;;;;;5171631;27;20188;-85
2021/01/19 02:48:02;;;;;;;28.58;17.23;;;3.00;99.90;;;;;;5174482;27;20311;-85
2021/01/19 02:50:28;;;;;;;27.40;17.55;;;3.10;99.90;;;;;;5175409;27;20215;-85
2021/01/19 02:52:55;;;;;;;26.35;17.80;;;3.10;99.90;;;;;;5171618;27;20195;-85
2021/01/19 02:55:22;;;;;;;27.50;17.55;;;3.00;99.90;;;;;;5178661;27;20207;-85
2021/01/19 02:58:04;;;;;;;27.27;17.85;;;3.10;99.90;;;;;;5177046;27;20295;-85
2021/01/19 03:00:56;;;;;;;31.02;18.27;;;3.10;99.90;;;;;;5177313;27;20255;-85
2021/01/19 03:03:23;;;;;;;28.23;17.13;;;3.10;99.90;;;;;;5164790;27;20187;-86
2021/01/19 03:05:50;;;;;;;32.03;18.48;;;3.00;99.90;;;;;;5161848;27;20195;-86
2021/01/19 03:08:18;;;;;;;30.83;17.15;;;3.00;99.90;;;;;;5166365;27;20687;-85
2021/01/19 03:10:48;;;;;;;32.97;17.63;;;3.10;99.90;;;;;;5159730;27;20204;-86
2021/01/19 03:13:15;;;;;;;26.40;17.58;;;3.00;99.90;;;;;;5159926;27;20203;-86
2021/01/19 03:15:42;;;;;;;26.73;17.00;;;3.00;99.90;;;;;;5159980;27;20631;-86
2021/01/19 03:18:09;;;;;;;26.27;16.90;;;3.00;99.90;;;;;;5158882;27;20611;-86
2021/01/19 03:20:36;;;;;;;26.17;16.65;;;3.00;99.90;;;;;;5159473;27;20305;-86
2021/01/19 03:23:03;;;;;;;25.45;17.65;;;3.00;99.90;;;;;;5159223;27;20200;-86
2021/01/19 03:25:29;;;;;;;29.45;17.83;;;3.00;99.90;;;;;;5158413;27;20202;-86
2021/01/19 03:27:56;;;;;;;28.25;16.23;;;3.00;99.90;;;;;;5157745;27;20251;-86
2021/01/19 03:30:23;;;;;;;29.38;18.10;;;3.00;99.90;;;;;;5158095;27;20199;-86
2021/01/19 03:32:49;;;;;;;28.55;18.17;;;3.00;99.90;;;;;;5158556;27;20203;-86
2021/01/19 03:35:15;;;;;;;31.63;18.95;;;3.00;99.90;;;;;;5158218;27;20214;-86
2021/01/19 03:37:43;;;;;;;30.33;17.92;;;3.00;99.90;;;;;;5158044;27;20227;-86
2021/01/19 03:40:10;;;;;;;26.10;17.45;;;3.00;99.90;;;;;;5158823;27;20388;-86
2021/01/19 03:42:37;;;;;;;26.13;16.17;;;3.00;99.90;;;;;;5158470;27;20206;-86
2021/01/19 03:45:04;;;;;;;26.60;16.67;;;2.90;99.90;;;;;;5158339;27;20217;-86
2021/01/19 03:47:35;;;;;;;24.55;16.15;;;2.90;99.90;;;;;;5159156;27;20225;-86
2021/01/19 03:50:02;;;;;;;23.77;16.77;;;2.90;99.90;;;;;;5158185;27;20479;-86
2021/01/19 03:52:28;;;;;;;28.20;16.15;;;2.90;99.90;;;;;;5158608;27;20203;-85
2021/01/19 03:54:55;;;;;;;27.25;18.15;;;2.90;99.90;;;;;;5158407;27;20219;-86
2021/01/19 03:57:21;;;;;;;24.60;15.23;;;2.90;99.90;;;;;;5164423;27;20224;-86
2021/01/19 03:59:48;;;;;;;25.77;16.92;;;2.90;99.90;;;;;;5166469;27;20200;-86
2021/01/19 04:02:14;;;;;;;25.48;17.70;;;2.90;99.90;;;;;;5166534;27;20271;-86
2021/01/19 04:04:41;;;;;;;24.90;15.93;;;2.90;99.90;;;;;;5165058;27;20246;-86
2021/01/19 04:07:07;;;;;;;21.83;15.68;;;2.90;99.90;;;;;;5160946;27;20299;-86
2021/01/19 04:09:33;;;;;;;25.13;15.70;;;2.80;99.90;;;;;;5161193;27;20196;-86
2021/01/19 04:12:00;;;;;;;23.63;15.80;;;2.80;99.90;;;;;;5160002;27;20267;-86
2021/01/19 04:14:27;;;;;;;26.65;15.90;;;2.90;99.90;;;;;;5159904;27;20219;-86
2021/01/19 04:16:53;;;;;;;24.33;15.73;;;2.80;99.90;;;;;;5159485;27;20231;-85
2021/01/19 04:19:20;;;;;;;22.55;15.52;;;2.80;99.90;;;;;;5159366;27;20199;-86
2021/01/19 04:21:46;;;;;;;27.95;15.70;;;2.80;99.90;;;;;;5159033;27;20238;-86
2021/01/19 04:24:12;;;;;;;23.80;15.10;;;2.90;99.90;;;;;;5158620;27;20227;-86
2021/01/19 04:26:38;;;;;;;23.63;16.67;;;2.90;99.90;;;;;;5158516;27;20199;-86
2021/01/19 04:29:06;;;;;;;23.85;15.82;;;2.90;99.90;;;;;;5158954;27;20229;-86
2021/01/19 04:31:32;;;;;;;24.95;16.20;;;2.90;99.90;;;;;;5158070;27;20199;-86
2021/01/19 04:33:58;;;;;;;25.48;15.15;;;2.90;99.90;;;;;;5158496;27;20319;-85
2021/01/19 04:36:24;;;;;;;23.30;14.85;;;2.90;99.90;;;;;;5158976;27;20286;-86
2021/01/19 04:38:51;;;;;;;24.23;15.48;;;2.80;99.90;;;;;;5159660;27;20708;-86
2021/01/19 04:41:18;;;;;;;26.30;15.15;;;2.90;99.90;;;;;;5159668;27;20202;-86
2021/01/19 04:43:45;;;;;;;22.05;16.00;;;3.00;99.90;;;;;;5158653;27;20200;-86
2021/01/19 04:46:14;;;;;;;21.63;15.88;;;3.00;99.90;;;;;;5160697;27;20295;-86
2021/01/19 04:48:42;;;;;;;22.58;16.17;;;3.00;99.90;;;;;;5160351;27;20231;-86
2021/01/19 04:51:16;;;;;;;23.60;16.80;;;3.00;99.90;;;;;;5159058;27;20439;-85
2021/01/19 04:53:45;;;;;;;22.98;15.80;;;3.00;99.90;;;;;;5174211;27;20251;-85
2021/01/19 04:56:18;;;;;;;23.88;14.55;;;2.90;99.90;;;;;;5177108;27;20255;-85
2021/01/19 04:58:49;;;;;;;21.80;13.77;;;2.90;99.90;;;;;;5178661;27;20350;-85
2021/01/19 05:01:29;;;;;;;22.23;15.45;;;2.90;99.90;;;;;;5177799;27;20432;-84
2021/01/19 05:03:57;;;;;;;21.27;16.90;;;2.90;99.90;;;;;;5174134;27;20424;-84
2021/01/19 05:07:13;;;;;;;20.02;14.13;;;2.90;99.90;;;;;;5177619;27;20207;-84
2021/01/19 05:09:50;;;;;;;19.10;12.68;;;2.90;99.90;;;;;;5161117;27;20282;-85
2021/01/19 05:12:24;;;;;;;19.65;13.43;;;2.90;99.90;;;;;;5160166;27;20187;-85
2021/01/19 05:14:54;;;;;;;20.65;13.30;;;2.90;99.90;;;;;;5160003;27;20239;-85
2021/01/19 05:17:24;;;;;;;17.95;12.63;;;2.90;99.90;;;;;;5159384;27;20215;-85
2021/01/19 05:19:51;;;;;;;20.65;13.48;;;2.90;99.90;;;;;;5158456;27;20435;-85
2021/01/19 05:22:20;;;;;;;15.63;13.07;;;2.90;99.90;;;;;;5159405;27;20255;-85
2021/01/19 05:24:47;;;;;;;19.75;12.77;;;2.90;99.90;;;;;;5160011;27;20206;-86
2021/01/19 05:27:14;;;;;;;18.80;13.02;;;3.10;99.90;;;;;;5159020;27;20223;-85
2021/01/19 05:29:42;;;;;;;18.80;12.98;;;3.00;99.90;;;;;;5157918;27;20432;-86
2021/01/19 05:32:08;;;;;;;15.50;12.48;;;3.10;99.90;;;;;;5161124;27;20207;-85
2021/01/19 05:34:37;;;;;;;15.68;11.43;;;3.20;99.90;;;;;;5166478;27;20607;-85
2021/01/19 05:37:03;;;;;;;16.55;10.60;;;3.10;99.90;;;;;;5168051;27;20224;-85
2021/01/19 05:39:30;;;;;;;15.75;11.77;;;3.10;99.90;;;;;;5182431;22;20220;-82
2021/01/19 05:41:57;;;;;;;12.95;10.30;;;3.10;99.90;;;;;;5138974;28;20566;-82
2021/01/19 05:44:25;;;;;;;16.13;11.15;;;3.10;99.90;;;;;;5137305;28;20283;-81
2021/01/19 05:46:59;;;;;;;15.60;10.10;;;3.00;99.90;;;;;;5136987;28;20209;-81
2021/01/19 05:49:26;;;;;;;17.63;10.20;;;3.00;99.90;;;;;;5137465;27;20188;-81
2021/01/19 05:51:59;;;;;;;16.40;9.57;;;3.00;99.90;;;;;;5157605;27;20626;-81
2021/01/19 05:54:30;;;;;;;12.77;8.90;;;3.10;99.90;;;;;;5157623;27;20252;-81
2021/01/19 05:57:10;;;;;;;13.00;10.48;;;3.10;99.90;;;;;;5157680;27;20301;-82
2021/01/19 05:59:40;;;;;;;18.10;10.00;;;3.00;99.90;;;;;;5157507;27;20715;-81
2021/01/19 06:02:08;;;;;;;11.90;9.45;;;3.00;99.90;;;;;;5157373;27;20200;-81
2021/01/19 06:04:40;;;;;;;12.77;9.85;;;3.00;99.90;;;;;;5157990;27;20199;-82
2021/01/19 06:07:09;;;;;;;15.65;10.52;;;3.00;99.90;;;;;;5158464;27;20640;-81
2021/01/19 06:09:36;;;;;;;14.50;10.48;;;3.00;99.90;;;;;;5158244;27;20196;-81
2021/01/19 06:12:03;;;;;;;14.35;10.00;;;3.10;99.90;;;;;;5161421;27;20204;-82
2021/01/19 06:14:31;;;;;;;14.00;9.95;;;3.00;99.90;;;;;;5161032;27;20223;-81
2021/01/19 06:17:05;;;;;;;13.20;10.30;;;3.10;99.90;;;;;;5160612;27;20209;-82
2021/01/19 06:19:32;;;;;;;11.55;9.45;;;3.10;99.90;;;;;;5160638;27;20199;-81
2021/01/19 06:22:04;;;;;;;18.42;11.20;;;3.10;99.90;;;;;;5160844;27;20235;-81
2021/01/19 06:24:36;;;;;;;13.90;10.25;;;3.10;99.90;;;;;;5160606;27;20184;-81
2021/01/19 06:27:04;;;;;;;16.48;10.00;;;3.10;99.90;;;;;;5160359;27;20184;-80
2021/01/19 06:29:31;;;;;;;18.88;11.30;;;3.10;99.90;;;;;;5160755;27;20207;-81
2021/01/19 06:31:59;;;;;;;12.43;8.80;;;3.10;99.90;;;;;;5161242;27;20203;-81
2021/01/19 06:34:31;;;;;;;10.10;9.05;;;3.10;99.90;;;;;;5160750;27;20219;-81
2021/01/19 06:36:58;;;;;;;11.77;10.13;;;3.00;99.90;;;;;;5162481;27;20221;-81
2021/01/19 06:39:34;;;;;;;13.23;9.57;;;3.10;99.90;;;;;;5166751;27;20201;-81
2021/01/19 06:42:06;;;;;;;15.85;9.77;;;3.10;99.90;;;;;;5169455;27;20644;-81
2021/01/19 06:44:37;;;;;;;14.30;10.63;;;3.10;99.90;;;;;;5168827;27;20259;-81
2021/01/19 06:47:05;;;;;;;12.68;9.27;;;3.00;99.90;;;;;;5169246;27;20202;-81
2021/01/19 06:49:33;;;;;;;14.00;9.65;;;3.00;99.90;;;;;;5167344;27;20204;-81
2021/01/19 06:52:05;;;;;;;14.18;9.75;;;3.00;99.90;;;;;;5165175;27;20345;-82
2021/01/19 06:54:54;;;;;;;12.07;8.85;;;3.00;99.90;;;;;;5161605;27;20279;-80
2021/01/19 06:57:32;;;;;;;11.20;8.68;;;3.00;99.90;;;;;;5109774;27;20200;-81
2021/01/19 07:00:10;;;;;;;16.48;9.38;;;3.00;99.90;;;;;;5161944;27;20211;-80
2021/01/19 07:02:38;;;;;;;15.75;10.40;;;3.10;99.90;;;;;;5166408;27;20227;-82
2021/01/19 07:05:10;;;;;;;16.45;10.35;;;2.90;99.90;;;;;;5166446;27;20192;-83
2021/01/19 07:07:41;;;;;;;20.50;11.43;;;2.90;99.90;;;;;;5161971;27;20196;-82
2021/01/19 07:10:11;;;;;;;16.50;10.98;;;2.90;99.90;;;;;;5163282;27;20219;-83
2021/01/19 07:12:56;;;;;;;14.90;10.82;;;2.90;99.90;;;;;;5161011;27;20532;-82
2021/01/19 07:15:33;;;;;;;14.75;10.45;;;2.90;99.90;;;;;;5149801;27;20219;-82
2021/01/19 07:18:16;;;;;;;14.68;10.30;;;3.00;99.90;;;;;;5161156;27;20188;-83
2021/01/19 07:21:03;;;;;;;14.55;10.07;;;3.00;99.90;;;;;;5161037;27;20653;-81
2021/01/19 07:24:12;;;;;;;18.40;10.52;;;3.00;99.90;;;;;;5168706;27;20188;-82
2021/01/19 07:26:41;;;;;;;18.73;11.80;;;2.90;99.90;;;;;;5137311;27;20781;-81
2021/01/19 07:29:08;;;;;;;14.05;10.82;;;3.00;99.90;;;;;;5161619;27;20208;-81
2021/01/19 07:31:34;;;;;;;15.02;10.60;;;3.00;99.90;;;;;;5161983;27;20220;-82
2021/01/19 07:34:04;;;;;;;15.95;10.90;;;3.10;99.90;;;;;;5164879;27;20204;-82
2021/01/19 07:36:31;;;;;;;17.90;11.85;;;3.10;99.90;;;;;;5162871;27;20200;-81
2021/01/19 07:38:58;;;;;;;12.38;10.43;;;3.10;99.90;;;;;;5160279;27;20196;-82
2021/01/19 07:41:29;;;;;;;18.17;10.80;;;3.00;99.90;;;;;;5163294;27;20259;-82
2021/01/19 07:43:57;;;;;;;13.63;10.40;;;3.10;99.90;;;;;;5163519;27;20216;-81
2021/01/19 07:46:24;;;;;;;15.07;11.20;;;3.10;99.90;;;;;;5163551;27;20616;-81
2021/01/19 07:49:00;;;;;;;16.85;11.23;;;3.20;99.90;;;;;;5160207;27;20205;-81
2021/01/19 07:51:37;;;;;;;28.85;11.25;;;3.10;99.90;;;;;;5158967;27;20223;-81
2021/01/19 07:54:03;;;;;;;18.13;10.98;;;3.10;99.90;;;;;;5162396;27;20270;-82
2021/01/19 07:56:30;;;;;;;20.95;11.32;;;3.10;99.90;;;;;;5159518;27;20232;-80
2021/01/19 07:58:59;;;;;;;16.73;11.30;;;3.00;99.90;;;;;;5159791;27;20204;-80
2021/01/19 08:01:26;;;;;;;17.75;11.32;;;3.10;99.90;;;;;;5161437;27;20215;-82
2021/01/19 08:03:52;;;;;;;14.02;10.48;;;3.10;99.90;;;;;;5159589;27;20207;-81
2021/01/19 08:06:30;;;;;;;18.05;11.30;;;3.10;99.90;;;;;;5159277;27;20286;-81
2021/01/19 08:08:56;;;;;;;24.98;13.50;;;3.20;99.90;;;;;;5158906;27;20188;-80
2021/01/19 08:11:23;;;;;;;23.17;12.18;;;3.20;99.90;;;;;;5158921;27;20226;-81
2021/01/19 08:13:59;;;;;;;19.50;11.98;;;3.20;99.90;;;;;;5159774;27;20294;-80
2021/01/19 08:16:27;;;;;;;21.85;11.57;;;3.20;99.90;;;;;;5164771;27;20203;-80
2021/01/19 08:19:04;;;;;;;16.45;11.48;;;3.30;99.90;;;;;;5167876;27;20210;-81
2021/01/19 08:21:34;;;;;;;13.35;11.10;;;3.40;99.90;;;;;;5171908;27;20282;-80
2021/01/19 08:24:04;;;;;;;15.02;10.93;;;3.30;99.90;;;;;;5169643;27;20184;-81
2021/01/19 08:26:31;;;;;;;18.85;12.63;;;3.30;99.90;;;;;;5166553;27;20268;-78
2021/01/19 08:28:59;;;;;;;18.17;11.50;;;3.30;99.90;;;;;;5179318;27;20226;-78
2021/01/19 08:31:28;;;;;;;15.45;11.35;;;3.30;99.90;;;;;;5178820;27;20238;-78
2021/01/19 08:33:59;;;;;;;16.30;12.32;;;3.40;99.90;;;;;;5178092;27;20198;-80
2021/01/19 08:36:26;;;;;;;18.55;11.32;;;3.50;99.90;;;;;;5164573;27;20180;-81
2021/01/19 08:38:55;;;;;;;14.15;10.60;;;3.50;99.90;;;;;;5162137;27;20203;-80
2021/01/19 08:41:21;;;;;;;14.65;11.40;;;3.50;99.90;;;;;;5157832;27;20314;-80
2021/01/19 08:43:53;;;;;;;16.98;12.80;;;3.60;99.90;;;;;;5156945;27;20200;-79
2021/01/19 08:46:20;;;;;;;14.27;11.10;;;3.50;99.90;;;;;;5156566;27;20234;-80
2021/01/19 08:48:48;;;;;;;16.42;10.43;;;3.50;99.90;;;;;;5156765;27;20204;-82
2021/01/19 08:51:22;;;;;;;13.02;10.90;;;3.60;99.90;;;;;;5158148;27;20215;-81
2021/01/19 08:53:48;;;;;;;15.77;11.18;;;3.50;99.90;;;;;;5156984;27;20210;-82
2021/01/19 08:56:22;;;;;;;13.82;10.15;;;3.60;99.90;;;;;;5156626;27;20215;-81
2021/01/19 08:58:49;;;;;;;12.30;10.18;;;3.60;99.90;;;;;;5157830;27;20240;-81
2021/01/19 09:01:16;;;;;;;19.13;11.90;;;3.60;99.90;;;;;;5160225;27;20226;-82
2021/01/19 09:03:54;;;;;;;14.88;10.70;;;3.70;99.90;;;;;;5177541;27;20290;-81
2021/01/19 09:06:21;;;;;;;14.13;10.40;;;3.70;99.90;;;;;;5180026;27;20231;-81
2021/01/19 09:08:56;;;;;;;13.27;11.00;;;3.70;99.90;;;;;;5168194;27;20187;-80
2021/01/19 09:11:26;;;;;;;12.90;9.60;;;3.80;99.90;;;;;;5158774;27;20244;-80
2021/01/19 09:13:59;;;;;;;13.10;11.57;;;3.70;99.90;;;;;;5168726;27;20228;-82
2021/01/19 09:16:25;;;;;;;14.23;10.70;;;3.60;99.90;;;;;;5160427;27;20215;-81
2021/01/19 09:18:57;;;;;;;14.25;10.85;;;3.70;99.90;;;;;;5159764;27;20205;-81
2021/01/19 09:21:24;;;;;;;11.95;10.68;;;3.80;99.90;;;;;;5159264;27;20552;-82
2021/01/19 09:23:51;;;;;;;17.52;11.23;;;3.70;99.90;;;;;;5159787;27;20200;-81
2021/01/19 09:26:17;;;;;;;11.02;9.30;;;3.70;99.90;;;;;;5159005;27;20241;-81
2021/01/19 09:28:44;;;;;;;11.25;10.15;;;3.70;99.90;;;;;;5158274;27;20199;-81
2021/01/19 09:31:12;;;;;;;12.40;8.75;;;3.70;99.90;;;;;;5158839;27;20745;-81
2021/01/19 09:33:40;;;;;;;13.18;9.55;;;3.90;99.90;;;;;;5160516;27;20228;-81
2021/01/19 09:36:09;;;;;;;15.85;8.70;;;3.80;99.90;;;;;;5158660;27;20215;-82
2021/01/19 09:38:36;;;;;;;13.20;9.05;;;3.90;99.90;;;;;;5158511;27;20240;-82
2021/01/19 09:41:02;;;;;;;9.77;8.05;;;3.90;99.90;;;;;;5158111;27;20606;-81
2021/01/19 09:43:29;;;;;;;11.02;8.45;;;3.90;99.90;;;;;;5157733;27;20200;-81
2021/01/19 09:46:01;;;;;;;10.23;8.93;;;3.90;99.90;;;;;;5161254;27;20616;-81
2021/01/19 09:48:29;;;;;;;13.70;10.05;;;3.90;99.90;;;;;;5163836;27;20203;-82
2021/01/19 09:50:59;;;;;;;12.05;8.80;;;3.90;99.90;;;;;;5162248;27;20237;-82
2021/01/19 09:53:30;;;;;;;11.18;8.27;;;3.90;99.90;;;;;;5164886;27;20294;-82
2021/01/19 09:55:57;;;;;;;9.63;8.05;;;3.90;99.90;;;;;;5163694;27;20208;-82
2021/01/19 09:58:26;;;;;;;10.95;8.70;;;3.90;99.90;;;;;;5165079;27;20225;-82
2021/01/19 10:00:53;;;;;;;9.23;8.30;;;3.80;99.90;;;;;;5169989;27;20257;-81
2021/01/19 10:03:20;;;;;;;8.18;7.13;;;3.70;99.90;;;;;;5176402;27;20267;-81
2021/01/19 10:05:59;;;;;;;12.13;8.68;;;3.90;99.90;;;;;;5168456;27;20282;-81
2021/01/19 10:08:27;;;;;;;10.00;7.50;;;4.00;99.90;;;;;;5166066;27;20188;-80
2021/01/19 10:10:53;;;;;;;9.73;7.93;;;3.90;99.90;;;;;;5164815;27;20227;-81
2021/01/19 10:13:30;;;;;;;9.00;8.07;;;3.90;99.90;;;;;;5165339;27;20292;-80
2021/01/19 10:16:01;;;;;;;9.02;7.65;;;3.90;99.90;;;;;;5165590;27;20224;-85
2021/01/19 10:18:29;;;;;;;8.45;7.53;;;3.80;99.90;;;;;;5163916;27;20191;-82
2021/01/19 10:20:55;;;;;;;12.75;7.55;;;3.80;99.90;;;;;;5166501;27;20248;-82
2021/01/19 10:23:30;;;;;;;10.77;7.47;;;3.90;99.90;;;;;;5167571;27;20235;-81
2021/01/19 10:26:07;;;;;;;9.63;7.75;;;3.80;99.90;;;;;;5167525;27;20237;-79
2021/01/19 10:28:39;;;;;;;11.27;7.40;;;3.80;99.90;;;;;;5169113;27;20211;-79
2021/01/19 10:31:24;;;;;;;9.88;8.88;;;3.80;99.90;;;;;;5167267;27;20230;-81
2021/01/19 10:34:14;;;;;;;8.07;7.30;;;3.80;99.90;;;;;;5164467;27;20220;-79
2021/01/19 10:36:51;;;;;;;10.27;6.80;;;3.80;99.90;;;;;;5168704;27;20180;-81
2021/01/19 10:39:20;;;;;;;11.77;7.03;;;3.80;99.90;;;;;;5173900;27;20183;-79
2021/01/19 10:41:48;;;;;;;13.48;6.68;;;3.90;99.90;;;;;;5169391;27;20204;-81
2021/01/19 10:44:14;;;;;;;10.75;7.00;;;3.90;99.90;;;;;;5166089;27;20196;-81
2021/01/19 10:46:42;;;;;;;7.57;6.78;;;3.90;99.90;;;;;;5165295;27;20234;-81
2021/01/19 10:49:11;;;;;;;12.63;6.82;;;4.10;99.90;;;;;;5165461;27;20187;-80
2021/01/19 10:51:38;;;;;;;8.55;7.35;;;4.10;99.90;;;;;;5165680;27;20587;-80
2021/01/19 10:54:10;;;;;;;9.77;5.80;;;3.90;99.90;;;;;;5164804;27;20256;-80
2021/01/19 10:56:40;;;;;;;9.10;5.65;;;4.00;99.90;;;;;;5164989;27;20665;-80
2021/01/19 10:59:07;;;;;;;8.73;6.68;;;4.00;99.90;;;;;;5163169;27;20223;-80
2021/01/19 11:01:34;;;;;;;9.27;6.30;;;4.00;99.90;;;;;;5166620;27;20207;-81
2021/01/19 11:04:00;;;;;;;5.78;5.28;;;4.10;99.90;;;;;;5171288;27;20263;-81
2021/01/19 11:06:31;;;;;;;7.18;6.22;;;3.90;99.90;;;;;;5170859;27;20219;-79
2021/01/19 11:08:58;;;;;;;15.18;7.40;;;3.80;99.90;;;;;;5166219;27;20241;-80
2021/01/19 11:11:26;;;;;;;8.13;6.70;;;3.80;99.90;;;;;;5167497;27;20729;-79
2021/01/19 11:13:56;;;;;;;9.10;6.28;;;3.70;99.90;;;;;;5166128;27;20204;-80
2021/01/19 11:16:27;;;;;;;6.45;4.97;;;3.70;99.90;;;;;;5165200;27;20203;-79
2021/01/19 11:18:54;;;;;;;8.02;7.20;;;3.50;99.90;;;;;;5163576;27;20195;-79
2021/01/19 11:21:20;;;;;;;8.98;6.43;;;3.60;99.90;;;;;;5165384;27;20237;-81
2021/01/19 11:23:46;;;;;;;6.38;5.75;;;3.60;99.90;;;;;;5166443;27;20252;-80
2021/01/19 11:26:15;;;;;;;7.65;5.30;;;3.60;99.90;;;;;;5165628;27;20639;-79
2021/01/19 11:28:43;;;;;;;11.00;5.55;;;3.50;99.90;;;;;;5163725;27;20207;-79
2021/01/19 11:31:10;;;;;;;9.95;5.93;;;3.40;99.90;;;;;;5163933;27;20219;-79
2021/01/19 11:33:37;;;;;;;8.60;5.97;;;3.30;99.90;;;;;;5164306;27;20286;-79
2021/01/19 11:36:03;;;;;;;9.40;7.40;;;3.10;99.90;;;;;;5167680;27;20306;-80
2021/01/19 11:38:30;;;;;;;9.98;8.93;;;3.10;99.90;;;;;;5165978;27;20286;-78
2021/01/19 11:40:56;;;;;;;10.20;6.50;;;3.10;99.90;;;;;;5161576;27;20608;-80
2021/01/19 11:45:49;;;;;;;8.23;6.82;;;3.20;99.90;;;;;;5157259;22;20236;-78
2021/01/19 11:48:16;;;;;;;7.68;6.78;;;3.00;99.90;;;;;;5139419;27;20576;-78
2021/01/19 11:50:42;;;;;;;12.73;6.60;;;2.80;99.90;;;;;;5137510;27;20287;-78
2021/01/19 11:53:09;;;;;;;9.02;6.53;;;2.80;99.90;;;;;;5136931;27;20204;-78
2021/01/19 11:55:35;;;;;;;13.55;8.35;;;2.60;99.90;;;;;;5154819;27;20231;-77
2021/01/19 11:58:02;;;;;;;10.77;7.15;;;2.50;99.90;;;;;;5156346;27;20208;-78
2021/01/19 12:00:29;;;;;;;10.45;7.72;;;2.50;99.90;;;;;;5156733;27;20204;-77
2021/01/19 12:02:55;;;;;;;14.25;10.40;;;2.40;99.90;;;;;;5156684;27;20574;-78
2021/01/19 12:05:23;;;;;;;16.25;7.45;;;2.30;99.90;;;;;;5157634;27;20223;-80
2021/01/19 12:07:49;;;;;;;28.15;17.77;;;2.10;99.90;;;;;;5167185;27;20203;-81
2021/01/19 12:10:15;;;;;;;12.73;7.68;;;1.90;99.90;;;;;;5165887;27;20203;-80
2021/01/19 12:12:42;;;;;;;23.63;12.55;;;1.80;99.90;;;;;;5162002;27;20214;-80
2021/01/19 12:15:09;;;;;;;27.88;16.83;;;1.70;99.90;;;;;;5161681;27;20323;-80
2021/01/19 12:17:35;;;;;;;21.40;13.43;;;1.60;99.90;;;;;;5162051;27;20578;-80
2021/01/19 12:20:02;;;;;;;10.73;8.65;;;1.60;99.90;;;;;;5162294;27;20203;-79
2021/01/19 12:22:29;;;;;;;11.30;8.27;;;1.50;99.90;;;;;;5161977;27;20231;-80
2021/01/19 12:24:55;;;;;;;9.98;8.13;;;1.40;99.90;;;;;;5158562;27;20216;-80
2021/01/19 12:27:21;;;;;;;9.07;7.78;;;1.40;99.90;;;;;;5161192;27;20259;-80
2021/01/19 12:29:48;;;;;;;11.80;8.05;;;1.40;99.90;;;;;;5160767;27;20231;-80
2021/01/19 12:32:15;;;;;;;8.75;6.22;;;1.50;99.90;;;;;;5160751;27;20558;-80
2021/01/19 12:34:41;;;;;;;7.75;6.93;;;1.50;99.90;;;;;;5161039;27;20287;-79
2021/01/19 12:37:08;;;;;;;7.90;6.10;;;1.50;99.90;;;;;;5160360;27;20199;-79
2021/01/19 12:39:35;;;;;;;7.38;6.28;;;1.50;99.90;;;;;;5161422;27;20291;-79
2021/01/19 12:42:02;;;;;;;8.07;6.90;;;1.50;99.90;;;;;;5161536;27;20195;-82
2021/01/19 12:44:28;;;;;;;7.05;6.20;;;1.40;99.90;;;;;;5160003;27;20230;-79
2021/01/19 12:46:58;;;;;;;7.47;6.80;;;1.40;99.90;;;;;;5161936;27;20234;-80
2021/01/19 12:49:25;;;;;;;6.53;5.93;;;1.40;99.90;;;;;;5160839;27;20215;-80
2021/01/19 12:51:51;;;;;;;6.68;5.97;;;1.40;99.90;;;;;;5161770;27;20203;-80
2021/01/19 12:54:20;;;;;;;10.95;7.30;;;1.40;99.90;;;;;;5162170;27;20247;-79